createdAt,value
2023-04-30T00:00:33.270Z,100661.19
2023-04-30T00:05:34.919Z,100662.63
2023-04-30T00:10:36.565Z,100655.28
2023-04-30T00:15:38.141Z,100668.34
2023-04-30T00:20:39.707Z,100667.72
2023-04-30T00:25:41.381Z,100667.94
2023-04-30T00:30:43.116Z,100664.16
2023-04-30T00:35:45.165Z,100668.59
2023-04-30T00:40:49.896Z,100665.63
2023-04-30T00:45:51.584Z,100667.53
2023-04-30T00:50:53.254Z,100665.44
2023-04-30T00:55:55.941Z,100656.00
2023-04-30T01:00:58.634Z,100662.09
2023-04-30T01:06:00.472Z,100660.19
2023-04-30T01:11:13.126Z,100654.75
2023-04-30T01:16:28.519Z,100654.13
2023-04-30T01:21:33.216Z,100652.47
2023-04-30T01:26:48.949Z,100648.69
2023-04-30T01:31:51.783Z,100652.88
2023-04-30T01:37:11.600Z,100650.34
2023-04-30T01:42:41.543Z,100644.88
2023-04-30T01:48:08.927Z,100642.56
2023-04-30T01:53:16.907Z,100641.06
2023-04-30T01:58:22.662Z,100642.69
2023-04-30T02:03:24.636Z,100636.81
2023-04-30T02:08:27.216Z,100638.03
2023-04-30T02:13:28.823Z,100635.94
2023-04-30T02:18:30.572Z,100639.91
2023-04-30T02:23:32.182Z,100641.41
2023-04-30T02:28:33.973Z,100641.97
2023-04-30T02:33:35.618Z,100653.13
2023-04-30T02:38:37.199Z,100649.50
2023-04-30T02:43:38.862Z,100649.50
2023-04-30T02:48:40.493Z,100655.19
2023-04-30T02:53:42.042Z,100636.69
2023-04-30T02:58:43.463Z,100637.94
2023-04-30T03:03:45.032Z,100636.28
2023-04-30T03:08:46.947Z,100637.13
2023-04-30T03:13:51.907Z,100634.59
2023-04-30T03:18:53.670Z,100635.25
2023-04-30T03:23:55.180Z,100629.38
2023-04-30T03:28:56.783Z,100629.59
2023-04-30T03:33:58.463Z,100625.59
2023-04-30T03:39:00.546Z,100624.19
2023-04-30T03:44:02.138Z,100619.19
2023-04-30T03:49:03.753Z,100622.19
2023-04-30T03:54:08.504Z,100613.38
2023-04-30T03:59:10.253Z,100625.84
2023-04-30T04:04:12.019Z,100622.28
2023-04-30T04:09:13.638Z,100621.84
2023-04-30T04:14:17.152Z,100618.50
2023-04-30T04:19:19.155Z,100619.78
2023-04-30T04:24:21.195Z,100626.50
2023-04-30T04:29:23.335Z,100625.25
2023-04-30T04:34:24.862Z,100627.75
2023-04-30T04:39:26.634Z,100633.19
2023-04-30T04:44:29.057Z,100625.84
2023-04-30T04:49:31.063Z,100629.41
2023-04-30T04:54:32.616Z,100638.44
2023-04-30T04:59:34.218Z,100635.03
2023-04-30T05:04:35.792Z,100641.75
2023-04-30T05:09:37.421Z,100640.06
2023-04-30T05:14:39.054Z,100637.75
2023-04-30T05:19:40.796Z,100639.88
2023-04-30T05:24:42.366Z,100642.81
2023-04-30T05:29:43.881Z,100652.25
2023-04-30T05:34:45.386Z,100648.03
2023-04-30T05:39:47.001Z,100648.00
2023-04-30T05:44:49.271Z,100656.84
2023-04-30T05:49:50.812Z,100648.53
2023-04-30T05:54:52.315Z,100650.00
2023-04-30T05:59:54.815Z,100655.75
2023-04-30T06:04:56.710Z,100660.19
2023-04-30T06:09:58.939Z,100652.59
2023-04-30T06:15:00.642Z,100646.50
2023-04-30T06:20:06.857Z,100634.94
2023-04-30T06:25:09.038Z,100613.81
2023-04-30T06:30:11.049Z,100600.09
2023-04-30T06:35:12.635Z,100584.44
2023-04-30T06:40:14.147Z,100584.44
2023-04-30T06:45:15.692Z,100590.44
2023-04-30T06:50:17.276Z,100580.53
2023-04-30T06:55:19.029Z,100577.53
2023-04-30T07:00:20.637Z,100578.31
2023-04-30T07:05:22.176Z,100572.44
2023-04-30T07:10:23.826Z,100553.09
2023-04-30T07:15:25.392Z,100565.16
2023-04-30T07:20:26.918Z,100549.34
2023-04-30T07:25:28.442Z,100529.81
2023-04-30T07:30:29.940Z,100517.44
2023-04-30T07:35:31.463Z,100537.69
2023-04-30T07:40:36.151Z,100525.81
2023-04-30T07:45:38.388Z,100551.31
2023-04-30T07:50:40.007Z,100524.06
2023-04-30T07:55:41.571Z,100476.03
2023-04-30T08:00:43.206Z,100480.72
2023-04-30T08:05:44.796Z,100502.13
2023-04-30T08:10:46.336Z,100539.44
2023-04-30T08:15:47.975Z,100477.03
2023-04-30T08:20:50.041Z,100506.03
2023-04-30T08:25:51.780Z,100510.00
2023-04-30T08:30:55.874Z,100470.44
2023-04-30T08:35:57.478Z,100448.03
2023-04-30T08:41:12.120Z,100429.63
2023-04-30T08:46:16.653Z,100476.00
2023-04-30T08:51:18.671Z,100465.53
2023-04-30T08:56:22.253Z,100458.78
2023-04-30T09:01:25.754Z,100459.63
2023-04-30T09:06:27.498Z,100508.78
2023-04-30T09:11:30.935Z,100480.91
2023-04-30T09:16:47.008Z,100505.03
2023-04-30T09:21:48.502Z,100511.75
2023-04-30T09:26:51.082Z,100525.47
2023-04-30T09:31:52.681Z,100526.22
2023-04-30T09:36:55.197Z,100528.56
2023-04-30T09:42:12.441Z,100529.06
2023-04-30T09:47:21.119Z,100527.53
2023-04-30T09:52:22.911Z,100537.28
2023-04-30T09:57:24.744Z,100503.09
2023-04-30T10:02:27.164Z,100497.91
2023-04-30T10:07:36.271Z,100473.44
2023-04-30T10:12:54.913Z,100458.81
2023-04-30T10:18:06.480Z,100460.00
2023-04-30T10:23:08.551Z,100450.19
2023-04-30T10:28:11.512Z,100443.72
2023-04-30T10:33:20.077Z,100521.66
2023-04-30T10:38:27.817Z,100494.88
2023-04-30T10:43:33.369Z,100484.97
2023-04-30T10:48:36.042Z,100498.44
2023-04-30T10:53:40.185Z,100478.81
2023-04-30T10:58:41.857Z,100487.50
2023-04-30T11:04:05.335Z,100492.44
2023-04-30T11:09:07.331Z,100489.06
2023-04-30T11:14:11.759Z,100469.72
2023-04-30T11:19:14.160Z,100487.59
2023-04-30T11:24:15.759Z,100466.88
2023-04-30T11:29:18.043Z,100464.34
2023-04-30T11:34:20.089Z,100456.25
2023-04-30T11:39:22.487Z,100451.53
2023-04-30T11:44:27.692Z,100443.50
2023-04-30T11:49:29.355Z,100428.09
2023-04-30T11:54:35.638Z,100440.31
2023-04-30T11:59:42.374Z,100443.69
2023-04-30T12:04:45.282Z,100451.88
2023-04-30T12:09:57.243Z,100448.56
2023-04-30T12:15:10.324Z,100464.09
2023-04-30T12:20:15.116Z,100432.91
2023-04-30T12:25:19.535Z,100438.88
2023-04-30T12:30:23.635Z,100472.97
2023-04-30T12:35:29.062Z,100473.56
2023-04-30T12:40:30.764Z,100481.00
2023-04-30T12:45:55.774Z,100469.94
2023-04-30T12:51:02.098Z,100481.28
2023-04-30T12:56:09.964Z,100467.09
2023-04-30T13:01:15.376Z,100472.28
2023-04-30T13:06:17.230Z,100442.28
2023-04-30T13:11:18.813Z,100490.03
2023-04-30T13:16:20.473Z,100469.16
2023-04-30T13:21:22.972Z,100457.59
2023-04-30T13:26:24.515Z,100462.28
2023-04-30T13:31:26.169Z,100470.59
2023-04-30T13:36:28.765Z,100460.63
2023-04-30T13:41:30.343Z,100449.78
2023-04-30T13:46:32.035Z,100443.44
2023-04-30T13:51:33.714Z,100450.44
2023-04-30T13:56:35.417Z,100451.22
2023-04-30T14:01:36.979Z,100426.06
2023-04-30T14:06:38.834Z,100438.06
2023-04-30T14:11:41.554Z,100441.59
2023-04-30T14:16:44.848Z,100432.44
2023-04-30T14:21:49.049Z,100428.06
2023-04-30T14:26:50.582Z,100421.41
2023-04-30T14:31:52.130Z,100420.28
2023-04-30T14:36:53.760Z,100406.41
2023-04-30T14:41:57.406Z,100400.59
2023-04-30T14:46:59.252Z,100408.66
2023-04-30T14:52:00.931Z,100417.44
2023-04-30T14:57:04.047Z,100402.97
2023-04-30T15:02:06.376Z,100394.75
2023-04-30T15:07:07.910Z,100403.06
2023-04-30T15:12:09.445Z,100405.63
2023-04-30T15:17:11.346Z,100397.53
2023-04-30T15:22:13.304Z,100393.94
2023-04-30T15:27:14.833Z,100388.38
2023-04-30T15:32:17.169Z,100384.81
2023-04-30T15:37:18.954Z,100380.63
2023-04-30T15:42:20.592Z,100367.88
2023-04-30T15:47:23.985Z,100375.91
2023-04-30T15:52:25.777Z,100372.59
2023-04-30T15:57:27.546Z,100375.06
2023-04-30T16:02:30.189Z,100362.88
2023-04-30T16:07:32.251Z,100362.63
2023-04-30T16:12:34.294Z,100360.97
2023-04-30T16:17:35.861Z,100359.31
2023-04-30T16:22:37.521Z,100347.13
2023-04-30T16:27:39.380Z,100353.22
2023-04-30T16:32:41.404Z,100334.91
2023-04-30T16:37:42.928Z,100342.69
2023-04-30T16:42:44.444Z,100346.00
2023-04-30T16:47:46.032Z,100332.69
2023-04-30T16:52:47.578Z,100321.91
2023-04-30T16:57:49.270Z,100327.97
2023-04-30T17:02:52.996Z,100334.91
2023-04-30T17:07:55.246Z,100336.84
2023-04-30T17:13:03.917Z,100339.31
2023-04-30T17:18:06.170Z,100331.22
2023-04-30T17:23:07.882Z,100334.50
2023-04-30T17:28:09.470Z,100331.16
2023-04-30T17:33:11.228Z,100334.72
2023-04-30T17:38:12.769Z,100344.56
2023-04-30T17:43:14.426Z,100336.50
2023-04-30T17:48:15.940Z,100349.41
2023-04-30T17:53:17.454Z,100354.56
2023-04-30T17:58:19.223Z,100358.06
2023-04-30T18:03:20.907Z,100364.25
2023-04-30T18:08:22.698Z,100369.59
2023-04-30T18:13:24.214Z,100360.56
2023-04-30T18:18:25.779Z,100360.28
2023-04-30T18:23:27.376Z,100365.16
2023-04-30T18:28:29.144Z,100371.63
2023-04-30T18:33:31.120Z,100368.13
2023-04-30T18:38:32.998Z,100365.72
2023-04-30T18:43:37.106Z,100368.84
2023-04-30T18:48:38.734Z,100376.88
2023-04-30T18:53:41.844Z,100381.06
2023-04-30T18:58:45.607Z,100384.13
2023-04-30T19:03:47.727Z,100379.53
2023-04-30T19:08:49.661Z,100382.06
2023-04-30T19:13:51.354Z,100381.81
2023-04-30T19:18:52.924Z,100386.56
2023-04-30T19:23:54.599Z,100380.97
2023-04-30T19:28:56.176Z,100381.66
2023-04-30T19:33:59.833Z,100377.53
2023-04-30T19:39:01.404Z,100383.44
2023-04-30T19:44:03.057Z,100380.91
2023-04-30T19:49:04.629Z,100384.44
2023-04-30T19:54:06.730Z,100386.50
2023-04-30T19:59:09.378Z,100381.19
2023-04-30T20:04:11.099Z,100384.91
2023-04-30T20:09:12.761Z,100379.97
2023-04-30T20:14:14.268Z,100379.28
2023-04-30T20:19:15.790Z,100374.69
2023-04-30T20:24:17.746Z,100368.38
2023-04-30T20:29:20.677Z,100373.00
2023-04-30T20:34:22.974Z,100366.53
2023-04-30T20:39:24.692Z,100365.75
2023-04-30T20:44:26.892Z,100363.72
2023-04-30T20:49:28.633Z,100363.19
2023-04-30T20:54:30.378Z,100347.50
2023-04-30T20:59:32.523Z,100345.38
2023-04-30T21:04:34.252Z,100349.00
2023-04-30T21:09:37.031Z,100344.91
2023-04-30T21:14:38.611Z,100346.63
2023-04-30T21:19:40.468Z,100346.28
2023-04-30T21:24:42.591Z,100334.53
2023-04-30T21:29:44.142Z,100327.22
2023-04-30T21:34:46.019Z,100331.06
2023-04-30T21:39:47.543Z,100322.53
2023-04-30T21:44:49.146Z,100328.88
2023-04-30T21:49:50.753Z,100328.13
2023-04-30T21:54:52.334Z,100321.44
2023-04-30T21:59:54.197Z,100318.09
2023-04-30T22:04:57.438Z,100313.09
2023-04-30T22:09:59.093Z,100310.59
2023-04-30T22:15:01.668Z,100314.09
2023-04-30T22:20:03.431Z,100315.78
2023-04-30T22:25:05.533Z,100303.78
2023-04-30T22:30:07.585Z,100307.13
2023-04-30T22:35:10.959Z,100297.84
2023-04-30T22:40:12.827Z,100295.53
2023-04-30T22:45:14.619Z,100284.19
2023-04-30T22:50:16.560Z,100278.78
2023-04-30T22:55:18.427Z,100273.72
2023-04-30T23:00:20.288Z,100284.66
2023-04-30T23:05:21.842Z,100288.03
2023-04-30T23:10:23.478Z,100267.84
2023-04-30T23:15:25.995Z,100278.56
2023-04-30T23:20:28.344Z,100267.19
2023-04-30T23:25:32.239Z,100270.75
2023-04-30T23:30:37.921Z,100263.66
2023-04-30T23:35:42.286Z,100256.53
2023-04-30T23:40:43.901Z,100252.50
2023-04-30T23:45:45.540Z,100256.47
2023-04-30T23:50:47.944Z,100261.72
2023-04-30T23:55:49.592Z,100243.44
